Theodore Roosevelt National Park, ND

04:45 MDT le 30 août 2016 (GMT -0600)
Southview | | Change Station

Alt. 2434 ft 46.86 °N, 102.78 °W | Updated 54 seconds ago

Clear
Ciel dégagé
49.4 ° F
Paraît 49 ° F
N
0.0
Vent Variable Vent de ESE

Aujourd'hui
Haut(e) -- | Bas -- ° F
--% Risque de précip.
Hier
Haut(e) -- | Bas -- ° F
Precip. -- pouce
Pression 30.21 pouce
Visibilité 10.0 Miles terrestres
Nuages Ciel dégagé
Refroidissement éolien 49 ° F
Point de rosée 43 ° F
Humidité 79%
Précipitations 0.00 pouce
Profondeur de la couche neigeuse Non disponible.
6:08 AM 7:33 PM
Lune descendante, 4% visible
METAR KDIK 300956Z AUTO 15008KT 10SM CLR 11/08 A3023 RMK AO2 SLP228 T01110078
Pression 30.21 pouce
Visibilité 10.0 Miles terrestres
Nuages Ciel dégagé
Refroidissement éolien 49 ° F
Point de rosée 43 ° F
Humidité 79%
Précipitations 0.00 pouce
Profondeur de la couche neigeuse Non disponible.
6:08 AM 7:33 PM
Lune descendante, 4% visible
METAR KDIK 300956Z AUTO 15008KT 10SM CLR 11/08 A3023 RMK AO2 SLP228 T01110078

10-Day Weather Forecast

Almanac

Astronomie

Aug. 30, 2016 Lever Coucher
Temps réel
Crépuscule civil
Crépuscule nautique
Crépuscule astronomique
Lune
Durée de lumière visible
Longueur du jour
Tomorrow will be .
, % of the Moon is Illuminated

Extrêmes aujourd'hui

State Highs State Lows

Community

WunderPhotos

Upload Photos

1,935,809 Photos téléchargées !

WunderBlog® & News

Nearby

Qualité de l'air

  Qualité de l'air Indice de la qualité de l'air Polluant
Not available.

Épaisseur de neige

Station Depth Altitude

Activité sismique

Ville Distance Mag. Time & Date
Minimum magnitude displayed is 2.5.

Températures des eaux côtières

Lieu Température

Stations

Stations météo à proximité

Emplacement de la station Température Refroidissement éolien Point de rosée Humidité Vent Precip. Alt. Mise à jour Type
                   

Watches & Warnings

There are currently no watches in effect.